createdAt,value
2018-05-11T00:00:06.588Z,4.80
2018-05-11T00:02:34.092Z,4.70
2018-05-11T00:05:01.613Z,5.30
2018-05-11T00:07:29.105Z,5.10
2018-05-11T00:09:56.632Z,5.03
2018-05-11T00:12:24.636Z,6.22
2018-05-11T00:14:52.158Z,5.57
2018-05-11T00:17:19.664Z,5.30
2018-05-11T00:19:47.575Z,5.35
2018-05-11T00:22:15.071Z,5.00
2018-05-11T00:24:42.588Z,6.10
2018-05-11T00:27:10.479Z,5.90
2018-05-11T00:29:38.003Z,6.03
2018-05-11T00:32:05.504Z,5.65
2018-05-11T00:34:33.416Z,5.93
2018-05-11T00:37:00.915Z,5.80
2018-05-11T00:39:28.440Z,6.80
2018-05-11T00:41:55.947Z,5.37
2018-05-11T00:44:23.463Z,6.05
2018-05-11T00:46:50.966Z,5.80
2018-05-11T00:49:18.487Z,6.70
2018-05-11T00:51:46.096Z,6.60
2018-05-11T00:54:14.008Z,6.80
2018-05-11T00:56:41.503Z,6.40
2018-05-11T00:59:09.024Z,6.60
2018-05-11T01:01:36.531Z,6.32
2018-05-11T01:04:04.048Z,6.22
2018-05-11T01:06:31.556Z,7.55
2018-05-11T01:08:59.076Z,7.15
2018-05-11T01:11:26.584Z,7.00
2018-05-11T01:13:54.075Z,8.45
2018-05-11T01:16:21.584Z,7.30
2018-05-11T01:18:49.079Z,8.27
2018-05-11T01:21:16.988Z,7.15
2018-05-11T01:23:44.496Z,7.65
2018-05-11T01:26:12.003Z,8.18
2018-05-11T01:28:39.896Z,8.25
2018-05-11T01:31:07.799Z,7.82
2018-05-11T01:33:35.300Z,8.43
2018-05-11T01:36:02.808Z,7.43
2018-05-11T01:38:30.699Z,6.95
2018-05-11T01:40:58.264Z,7.90
2018-05-11T01:43:26.153Z,7.43
2018-05-11T01:45:53.664Z,8.23
2018-05-11T01:48:21.183Z,9.75
2018-05-11T01:50:49.100Z,10.73
2018-05-11T01:53:16.604Z,10.85
2018-05-11T01:55:44.118Z,11.48
2018-05-11T01:58:11.625Z,10.82
2018-05-11T02:00:39.143Z,10.20
2018-05-11T02:03:07.031Z,10.50
2018-05-11T02:05:34.943Z,11.10
2018-05-11T02:08:02.439Z,7.87
2018-05-11T02:10:29.959Z,9.63
2018-05-11T02:12:57.451Z,9.38
2018-05-11T02:15:24.969Z,9.85
2018-05-11T02:17:52.472Z,9.80
2018-05-11T02:20:20.383Z,11.30
2018-05-11T02:22:47.883Z,10.32
2018-05-11T02:25:15.395Z,10.15
2018-05-11T02:27:43.284Z,10.38
2018-05-11T02:30:10.806Z,11.10
2018-05-11T02:32:38.308Z,11.90
2018-05-11T02:35:06.203Z,11.05
2018-05-11T02:37:33.719Z,11.48
2018-05-11T02:40:01.226Z,10.98
2018-05-11T02:42:29.136Z,11.90
2018-05-11T02:44:56.696Z,11.45
2018-05-11T02:47:24.215Z,11.80
2018-05-11T02:49:51.720Z,12.02
2018-05-11T02:52:19.646Z,12.30
2018-05-11T02:54:47.140Z,12.37
2018-05-11T02:57:14.655Z,10.93
2018-05-11T02:59:42.556Z,11.15
2018-05-11T03:02:10.066Z,12.75
2018-05-11T03:04:37.568Z,15.50
2018-05-11T03:07:05.485Z,13.98
2018-05-11T03:09:32.981Z,14.80
2018-05-11T03:12:00.512Z,14.75
2018-05-11T03:14:28.007Z,13.85
2018-05-11T03:16:55.525Z,13.62
2018-05-11T03:19:23.019Z,13.43
2018-05-11T03:21:50.990Z,12.55
2018-05-11T03:24:18.888Z,14.80
2018-05-11T03:26:46.412Z,15.50
2018-05-11T03:29:13.913Z,14.35
2018-05-11T03:31:41.819Z,13.90
2018-05-11T03:34:09.319Z,12.85
2018-05-11T03:36:36.827Z,12.55
2018-05-11T03:39:04.720Z,13.02
2018-05-11T03:41:32.635Z,12.15
2018-05-11T03:44:00.258Z,12.15
2018-05-11T03:46:27.771Z,12.55
2018-05-11T03:48:55.296Z,11.93
2018-05-11T03:51:22.807Z,11.60
2018-05-11T03:53:50.311Z,11.63
2018-05-11T03:56:17.831Z,12.77
2018-05-11T03:58:45.721Z,12.02
2018-05-11T04:01:25.068Z,11.45
2018-05-11T04:04:04.508Z,11.68
2018-05-11T04:06:44.399Z,12.00
2018-05-11T04:09:11.892Z,13.10
2018-05-11T04:11:39.392Z,12.00
2018-05-11T04:14:07.008Z,11.60
2018-05-11T04:16:34.499Z,12.55
2018-05-11T04:19:02.032Z,12.05
2018-05-11T04:21:29.977Z,13.62
2018-05-11T04:23:57.456Z,13.05
2018-05-11T04:26:24.955Z,13.82
2018-05-11T04:28:52.871Z,13.65
2018-05-11T04:31:20.363Z,13.88
2018-05-11T04:33:47.875Z,13.30
2018-05-11T04:36:15.771Z,13.85
2018-05-11T04:38:43.284Z,14.55
2018-05-11T04:41:10.779Z,13.68
2018-05-11T04:43:38.291Z,13.52
2018-05-11T04:46:05.792Z,13.57
2018-05-11T04:48:33.312Z,14.10
2018-05-11T04:51:00.828Z,15.07
2018-05-11T04:53:28.348Z,13.80
2018-05-11T04:55:56.243Z,15.23
2018-05-11T04:58:23.752Z,15.85
2018-05-11T05:00:51.256Z,15.25
2018-05-11T05:03:18.767Z,15.60
2018-05-11T05:05:46.272Z,15.07
2018-05-11T05:08:13.787Z,16.52
2018-05-11T05:10:41.684Z,17.48
2018-05-11T05:13:09.199Z,15.18
2018-05-11T05:15:36.699Z,15.63
2018-05-11T05:18:04.713Z,15.00
2018-05-11T05:20:32.211Z,14.32
2018-05-11T05:22:59.724Z,14.43
2018-05-11T05:25:27.639Z,14.85
2018-05-11T05:27:55.144Z,14.48
2018-05-11T05:30:22.755Z,15.93
2018-05-11T05:32:50.651Z,15.68
2018-05-11T05:35:18.172Z,14.32
2018-05-11T05:37:45.671Z,14.87
2018-05-11T05:40:13.588Z,16.50
2018-05-11T05:42:41.095Z,16.40
2018-05-11T05:45:08.620Z,15.18
2018-05-11T05:47:36.124Z,15.43
2018-05-11T05:50:03.644Z,15.75
2018-05-11T05:52:31.549Z,15.60
2018-05-11T05:54:59.073Z,15.40
2018-05-11T05:57:26.575Z,15.88
2018-05-11T05:59:54.119Z,15.25
2018-05-11T06:02:21.627Z,16.13
2018-05-11T06:04:49.157Z,16.20
2018-05-11T06:07:16.663Z,15.18
2018-05-11T06:09:44.633Z,16.10
2018-05-11T06:12:12.537Z,15.40
2018-05-11T06:14:40.052Z,16.90
2018-05-11T06:17:07.618Z,19.50
2018-05-11T06:19:35.154Z,19.93
2018-05-11T06:22:02.680Z,20.47
2018-05-11T06:24:30.196Z,20.87
2018-05-11T06:26:57.700Z,21.10
2018-05-11T06:29:25.220Z,20.63
2018-05-11T06:31:53.112Z,21.07
2018-05-11T06:34:20.623Z,19.63
2018-05-11T06:36:48.144Z,20.53
2018-05-11T06:39:15.669Z,21.30
2018-05-11T06:41:43.163Z,20.07
2018-05-11T06:44:10.702Z,19.40
2018-05-11T06:46:38.199Z,18.37
2018-05-11T06:49:05.702Z,20.43
2018-05-11T06:51:33.228Z,21.50
2018-05-11T06:54:00.846Z,21.03
2018-05-11T06:56:28.755Z,19.67
2018-05-11T06:58:56.247Z,21.77
2018-05-11T07:01:23.759Z,18.77
2018-05-11T07:03:51.659Z,19.83
2018-05-11T07:06:19.176Z,20.00
2018-05-11T07:08:46.671Z,22.07
2018-05-11T07:11:14.184Z,20.20
2018-05-11T07:13:41.683Z,20.00
2018-05-11T07:16:09.200Z,19.87
2018-05-11T07:18:37.100Z,20.97
2018-05-11T07:21:04.623Z,20.60
2018-05-11T07:23:32.119Z,20.77
2018-05-11T07:26:00.037Z,20.23
2018-05-11T07:28:27.537Z,22.20
2018-05-11T07:30:55.056Z,22.30
2018-05-11T07:33:22.564Z,20.93
2018-05-11T07:35:50.088Z,20.20
2018-05-11T07:38:18.094Z,19.70
2018-05-11T07:40:45.615Z,20.40
2018-05-11T07:43:13.234Z,18.90
2018-05-11T07:45:40.674Z,19.70
2018-05-11T07:48:08.567Z,19.73
2018-05-11T07:50:36.480Z,19.03
2018-05-11T07:53:03.983Z,19.40
2018-05-11T07:55:31.500Z,19.70
2018-05-11T07:57:58.999Z,18.20
2018-05-11T08:00:26.512Z,18.07
2018-05-11T08:02:54.099Z,18.23
2018-05-11T08:05:22.020Z,15.67
2018-05-11T08:07:49.525Z,17.40
2018-05-11T08:10:17.023Z,17.80
2018-05-11T08:12:44.932Z,16.90
2018-05-11T08:15:12.431Z,17.77
2018-05-11T08:17:39.944Z,16.63
2018-05-11T08:20:07.495Z,17.00
2018-05-11T08:22:35.011Z,16.40
2018-05-11T08:25:02.555Z,16.00
2018-05-11T08:27:30.463Z,16.90
2018-05-11T08:29:57.964Z,16.33
2018-05-11T08:32:25.482Z,16.80
2018-05-11T08:34:53.380Z,15.17
2018-05-11T08:37:20.895Z,14.97
2018-05-11T08:39:48.387Z,15.30
2018-05-11T08:42:15.900Z,14.63
2018-05-11T08:44:43.451Z,14.60
2018-05-11T08:47:11.445Z,15.37
2018-05-11T08:52:13.103Z,14.63
2018-05-11T08:54:40.601Z,14.70
2018-05-11T08:57:08.554Z,14.07
2018-05-11T08:59:36.011Z,13.77
2018-05-11T09:02:03.531Z,13.60
2018-05-11T09:04:31.504Z,14.50
2018-05-11T09:06:59.403Z,14.07
2018-05-11T09:09:26.900Z,12.97
2018-05-11T09:11:54.415Z,11.60
2018-05-11T09:14:21.922Z,12.47
2018-05-11T09:16:49.466Z,13.70
2018-05-11T09:19:18.767Z,13.07
2018-05-11T09:21:46.284Z,13.47
2018-05-11T09:24:13.791Z,12.47
2018-05-11T09:26:41.308Z,13.07
2018-05-11T09:29:09.232Z,12.37
2018-05-11T09:31:36.740Z,11.93
2018-05-11T09:34:04.231Z,11.70
2018-05-11T09:36:32.123Z,12.63
2018-05-11T09:38:59.632Z,11.90
2018-05-11T09:41:27.130Z,11.97
2018-05-11T09:43:54.644Z,11.90
2018-05-11T09:46:22.131Z,13.07
2018-05-11T09:48:49.639Z,12.37
2018-05-11T09:51:17.135Z,12.93
2018-05-11T09:53:45.055Z,13.60
2018-05-11T09:56:12.565Z,13.47
2018-05-11T09:58:40.075Z,12.07
2018-05-11T10:01:07.563Z,12.00
2018-05-11T10:03:35.069Z,12.10
2018-05-11T10:06:02.569Z,10.90
2018-05-11T10:08:30.080Z,9.20
2018-05-11T10:10:57.572Z,9.97
2018-05-11T10:13:25.074Z,10.57
2018-05-11T10:15:52.956Z,9.90
2018-05-11T10:18:20.863Z,9.43
2018-05-11T10:20:48.392Z,10.13
2018-05-11T10:23:15.971Z,9.50
2018-05-11T10:25:43.492Z,10.03
2018-05-11T10:28:10.998Z,8.90
2018-05-11T10:30:38.487Z,8.40
2018-05-11T10:33:06.387Z,7.90
2018-05-11T10:35:33.875Z,8.63
2018-05-11T10:38:01.375Z,7.63
2018-05-11T10:40:28.869Z,7.70
2018-05-11T10:42:56.375Z,7.77
2018-05-11T10:45:23.865Z,6.80
2018-05-11T10:47:51.367Z,7.23
2018-05-11T10:50:18.862Z,6.63
2018-05-11T10:52:46.765Z,8.17
2018-05-11T10:55:14.328Z,7.47
2018-05-11T10:57:41.783Z,7.70
2018-05-11T11:00:09.767Z,6.40
2018-05-11T11:02:37.652Z,6.40
2018-05-11T11:05:05.547Z,5.47
2018-05-11T11:07:33.031Z,7.30
2018-05-11T11:10:00.539Z,6.57
2018-05-11T11:12:28.031Z,6.33
2018-05-11T11:14:55.535Z,7.20
2018-05-11T11:17:23.024Z,7.20
2018-05-11T11:19:50.595Z,6.50
2018-05-11T11:22:18.440Z,6.30
2018-05-11T11:24:46.339Z,7.03
2018-05-11T11:27:13.823Z,6.40
2018-05-11T11:29:41.323Z,5.80
2018-05-11T11:32:08.939Z,5.50
2018-05-11T11:34:36.965Z,6.00
2018-05-11T11:37:04.391Z,6.30
2018-05-11T11:39:32.287Z,6.20
2018-05-11T11:41:59.833Z,6.07
2018-05-11T11:44:27.295Z,6.10
2018-05-11T11:46:54.779Z,5.40
2018-05-11T11:49:22.318Z,7.57
2018-05-11T11:54:24.273Z,7.00
2018-05-11T11:56:51.771Z,6.40
2018-05-11T11:59:19.272Z,5.20
2018-05-11T12:01:46.759Z,6.00
2018-05-11T12:04:14.738Z,5.10
2018-05-11T12:06:42.227Z,6.07
2018-05-11T12:09:10.159Z,5.10
2018-05-11T12:11:37.651Z,6.37
2018-05-11T12:14:05.163Z,5.33
2018-05-11T12:16:32.659Z,5.50
2018-05-11T12:19:00.375Z,5.40
2018-05-11T12:21:27.861Z,4.50
2018-05-11T12:23:55.833Z,4.87
2018-05-11T12:26:23.399Z,5.33
2018-05-11T12:28:50.859Z,4.53
2018-05-11T12:31:18.367Z,3.47
2018-05-11T12:33:45.851Z,3.20
2018-05-11T12:36:13.353Z,4.10
2018-05-11T12:38:40.843Z,3.50
2018-05-11T12:41:08.419Z,4.63
2018-05-11T12:43:35.907Z,4.40
2018-05-11T12:46:03.805Z,4.83
2018-05-11T12:48:31.359Z,4.03
2018-05-11T12:50:59.264Z,3.77
2018-05-11T12:53:26.748Z,4.00
2018-05-11T12:55:54.247Z,3.63
2018-05-11T12:58:21.730Z,4.57
2018-05-11T13:00:49.232Z,3.60
2018-05-11T13:03:17.198Z,4.33
2018-05-11T13:05:45.095Z,4.23
2018-05-11T13:08:12.974Z,3.63
2018-05-11T13:10:40.881Z,3.77
2018-05-11T13:13:08.387Z,3.47
2018-05-11T13:15:35.886Z,3.47
2018-05-11T13:18:03.863Z,2.77
2018-05-11T13:20:31.853Z,3.43
2018-05-11T13:22:59.266Z,2.90
2018-05-11T13:25:26.771Z,2.67
2018-05-11T13:27:54.254Z,2.90
2018-05-11T13:30:21.793Z,2.60
2018-05-11T13:32:49.287Z,2.90
2018-05-11T13:35:16.795Z,3.20
2018-05-11T13:37:44.324Z,3.53
2018-05-11T13:40:11.827Z,2.83
2018-05-11T13:42:39.707Z,2.90
2018-05-11T13:45:07.603Z,3.10
2018-05-11T13:47:35.125Z,3.03
2018-05-11T13:50:02.620Z,3.60
2018-05-11T13:52:30.503Z,3.30
2018-05-11T13:54:58.383Z,3.10
2018-05-11T13:57:26.292Z,2.93
2018-05-11T13:59:53.780Z,2.63
2018-05-11T14:02:21.283Z,2.67
2018-05-11T14:04:48.775Z,2.87
2018-05-11T14:07:16.688Z,7.00
2018-05-11T14:09:44.174Z,4.90
2018-05-11T14:12:11.680Z,3.03
2018-05-11T14:14:39.167Z,2.10
2018-05-11T14:17:07.068Z,2.87
2018-05-11T14:19:34.556Z,2.80
2018-05-11T14:22:02.060Z,3.63
2018-05-11T14:24:29.552Z,3.40
2018-05-11T14:26:57.059Z,3.20
2018-05-11T14:29:24.603Z,2.90
2018-05-11T14:31:52.598Z,2.80
2018-05-11T14:34:20.103Z,2.60
2018-05-11T14:36:47.609Z,2.27
2018-05-11T14:39:15.196Z,2.73
2018-05-11T14:41:42.627Z,2.53
2018-05-11T14:44:10.115Z,2.20
2018-05-11T14:46:37.614Z,2.50
2018-05-11T14:49:05.503Z,2.50
2018-05-11T14:51:33.012Z,2.43
2018-05-11T14:54:00.527Z,2.97
2018-05-11T14:56:28.428Z,2.90
2018-05-11T14:58:55.948Z,2.70
2018-05-11T15:01:23.560Z,2.73
2018-05-11T15:03:51.444Z,3.03
2018-05-11T15:06:19.370Z,2.87
2018-05-11T15:08:46.883Z,2.80
2018-05-11T15:11:14.768Z,2.70
2018-05-11T15:13:42.679Z,3.63
2018-05-11T15:16:10.170Z,2.43
2018-05-11T15:18:37.677Z,3.00
2018-05-11T15:21:05.163Z,2.23
2018-05-11T15:23:33.093Z,3.57
2018-05-11T15:26:00.578Z,2.50
2018-05-11T15:28:28.088Z,2.47
2018-05-11T15:30:55.574Z,2.83
2018-05-11T15:33:23.083Z,2.73
2018-05-11T15:35:50.575Z,2.57
2018-05-11T15:38:18.085Z,2.60
2018-05-11T15:40:45.575Z,2.70
2018-05-11T15:43:13.075Z,2.90
2018-05-11T15:45:40.558Z,2.70
2018-05-11T15:48:08.479Z,2.87
2018-05-11T15:50:36.017Z,2.93
2018-05-11T15:53:03.915Z,2.30
2018-05-11T15:55:31.411Z,2.17
2018-05-11T15:57:58.915Z,2.20
2018-05-11T16:00:26.403Z,2.50
2018-05-11T16:02:54.312Z,2.40
2018-05-11T16:05:21.803Z,2.53
2018-05-11T16:07:49.319Z,2.40
2018-05-11T16:10:16.808Z,2.80
2018-05-11T16:12:44.723Z,2.90
2018-05-11T16:15:12.217Z,2.17
2018-05-11T16:17:39.824Z,2.67
2018-05-11T16:20:07.707Z,2.30
2018-05-11T16:22:35.619Z,2.30
2018-05-11T16:25:03.104Z,2.40
2018-05-11T16:27:30.616Z,2.90
2018-05-11T16:29:58.201Z,2.23
2018-05-11T16:32:26.119Z,2.23
2018-05-11T16:34:53.608Z,2.20
2018-05-11T16:37:21.095Z,2.20
2018-05-11T16:39:48.597Z,2.10
2018-05-11T16:42:16.483Z,2.60
2018-05-11T16:44:44.040Z,2.70
2018-05-11T16:47:11.923Z,2.30
2018-05-11T16:49:39.829Z,2.67
2018-05-11T16:52:07.323Z,2.53
2018-05-11T16:54:34.844Z,2.23
2018-05-11T16:57:02.740Z,2.57
2018-05-11T16:59:30.248Z,2.40
2018-05-11T17:01:57.738Z,2.20
2018-05-11T17:04:25.244Z,2.80
2018-05-11T17:06:53.144Z,2.50
2018-05-11T17:09:20.648Z,2.67
2018-05-11T17:11:48.147Z,2.80
2018-05-11T17:14:15.806Z,2.63
2018-05-11T17:16:43.292Z,3.00
2018-05-11T17:19:10.797Z,3.00
2018-05-11T17:21:38.287Z,2.50
2018-05-11T17:24:05.837Z,3.07
2018-05-11T17:26:33.327Z,3.07
2018-05-11T17:29:00.835Z,3.13
2018-05-11T17:31:28.328Z,2.93
2018-05-11T17:33:56.256Z,2.30
2018-05-11T17:36:23.746Z,2.80
2018-05-11T17:38:51.247Z,2.40
2018-05-11T17:41:18.740Z,2.77
2018-05-11T17:43:46.245Z,2.90
2018-05-11T17:46:13.736Z,3.50
2018-05-11T17:48:41.280Z,3.00
2018-05-11T17:51:08.743Z,2.87
2018-05-11T17:53:36.238Z,2.87
2018-05-11T17:56:03.743Z,3.00
2018-05-11T17:58:31.228Z,3.27
2018-05-11T18:00:59.131Z,3.47
2018-05-11T18:03:26.618Z,2.20
2018-05-11T18:05:54.119Z,2.90
2018-05-11T18:08:21.606Z,2.90
2018-05-11T18:10:49.504Z,2.77
2018-05-11T18:13:16.989Z,2.80
2018-05-11T18:15:44.498Z,2.57
2018-05-11T18:18:11.978Z,2.97
2018-05-11T18:20:39.475Z,3.10
2018-05-11T18:23:07.359Z,3.00
2018-05-11T18:25:35.264Z,3.10
2018-05-11T18:28:02.770Z,3.40
2018-05-11T18:30:30.275Z,2.90
2018-05-11T18:32:58.160Z,2.97
2018-05-11T18:35:26.064Z,2.57
2018-05-11T18:37:53.550Z,2.87
2018-05-11T18:40:21.051Z,3.00
2018-05-11T18:42:48.539Z,3.00
2018-05-11T18:45:16.047Z,2.83
2018-05-11T18:47:43.531Z,2.17
2018-05-11T18:50:11.043Z,2.87
2018-05-11T18:52:38.552Z,3.03
2018-05-11T18:55:06.077Z,3.10
2018-05-11T18:57:33.569Z,3.30
2018-05-11T19:00:01.072Z,2.93
2018-05-11T19:02:28.574Z,2.97
2018-05-11T19:04:56.103Z,3.63
2018-05-11T19:07:23.600Z,3.30
2018-05-11T19:09:51.113Z,2.87
2018-05-11T19:12:18.603Z,3.43
2018-05-11T19:14:46.520Z,3.30
2018-05-11T19:17:14.003Z,2.90
2018-05-11T19:19:41.491Z,2.70
2018-05-11T19:22:08.990Z,3.07
2018-05-11T19:24:36.897Z,3.43
2018-05-11T19:27:04.413Z,2.80
2018-05-11T19:29:31.903Z,2.80
2018-05-11T19:31:59.415Z,2.57
2018-05-11T19:34:26.907Z,3.73
2018-05-11T19:36:54.411Z,3.43
2018-05-11T19:39:21.899Z,3.37
2018-05-11T19:41:49.809Z,3.60
2018-05-11T19:44:17.296Z,3.73
2018-05-11T19:46:44.807Z,3.30
2018-05-11T19:49:12.294Z,3.63
2018-05-11T19:51:40.201Z,3.37
2018-05-11T19:54:07.704Z,4.20
2018-05-11T19:56:35.270Z,3.13
2018-05-11T19:59:02.767Z,3.00
2018-05-11T20:01:30.281Z,3.90
2018-05-11T20:03:57.771Z,3.13
2018-05-11T20:06:25.283Z,3.73
2018-05-11T20:08:52.774Z,3.63
2018-05-11T20:11:20.671Z,3.53
2018-05-11T20:13:48.172Z,3.40
2018-05-11T20:16:15.680Z,3.90
2018-05-11T20:18:43.171Z,3.47
2018-05-11T20:21:11.078Z,3.50
2018-05-11T20:23:38.633Z,3.23
2018-05-11T20:26:06.090Z,3.43
2018-05-11T20:28:33.972Z,3.80
2018-05-11T20:31:01.949Z,3.97
2018-05-11T20:33:29.844Z,4.47
2018-05-11T20:35:57.355Z,3.20
2018-05-11T20:38:24.855Z,3.73
2018-05-11T20:40:52.345Z,3.60
2018-05-11T20:43:20.243Z,3.80
2018-05-11T20:45:47.732Z,3.53
2018-05-11T20:48:15.239Z,3.63
2018-05-11T20:50:42.788Z,2.90
2018-05-11T20:53:10.263Z,3.43
2018-05-11T20:55:37.760Z,3.53
2018-05-11T20:58:05.268Z,3.70
2018-05-11T21:00:32.764Z,3.93
2018-05-11T21:03:00.267Z,3.53
2018-05-11T21:05:27.751Z,3.70
2018-05-11T21:07:55.655Z,3.50
2018-05-11T21:10:23.158Z,3.20
2018-05-11T21:12:50.696Z,3.67
2018-05-11T21:15:18.183Z,4.10
2018-05-11T21:17:45.699Z,4.43
2018-05-11T21:20:13.195Z,4.07
2018-05-11T21:22:41.109Z,3.47
2018-05-11T21:25:08.604Z,3.50
2018-05-11T21:27:36.147Z,4.20
2018-05-11T21:30:03.640Z,4.00
2018-05-11T21:32:31.159Z,3.90
2018-05-11T21:34:59.144Z,3.60
2018-05-11T21:37:27.031Z,3.40
2018-05-11T21:39:54.538Z,4.20
2018-05-11T21:42:22.035Z,4.03
2018-05-11T21:44:49.547Z,3.67
2018-05-11T21:47:17.031Z,4.17
2018-05-11T21:49:44.543Z,3.80
2018-05-11T21:52:12.046Z,4.60
2018-05-11T21:54:39.950Z,4.30
2018-05-11T21:57:07.450Z,4.60
2018-05-11T21:59:34.966Z,4.03
2018-05-11T22:02:02.847Z,3.87
2018-05-11T22:04:30.860Z,4.27
2018-05-11T22:06:58.368Z,4.13
2018-05-11T22:09:25.860Z,4.67
2018-05-11T22:11:53.362Z,5.20
2018-05-11T22:14:20.852Z,4.27
2018-05-11T22:16:48.366Z,4.93
2018-05-11T22:19:15.855Z,5.00
2018-05-11T22:21:43.763Z,4.23
2018-05-11T22:24:11.251Z,4.13
2018-05-11T22:26:38.759Z,4.93
2018-05-11T22:29:06.255Z,4.73
2018-05-11T22:31:34.159Z,5.40
2018-05-11T22:34:01.646Z,4.90
2018-05-11T22:36:29.211Z,5.07
2018-05-11T22:38:56.707Z,4.30
2018-05-11T22:41:24.212Z,5.33
2018-05-11T22:43:52.119Z,4.70
2018-05-11T22:46:19.644Z,4.73
2018-05-11T22:48:47.155Z,4.93
2018-05-11T22:51:14.645Z,5.10
2018-05-11T22:53:42.159Z,5.07
2018-05-11T22:56:09.659Z,4.53
2018-05-11T22:58:37.171Z,5.70
2018-05-11T23:01:04.660Z,4.87
2018-05-11T23:03:32.165Z,5.87
2018-05-11T23:05:59.659Z,6.00
2018-05-11T23:08:27.179Z,5.30
2018-05-11T23:10:54.770Z,5.40
2018-05-11T23:13:22.663Z,4.97
2018-05-11T23:15:50.175Z,4.20
2018-05-11T23:18:17.663Z,5.60
2018-05-11T23:20:45.284Z,5.03
2018-05-11T23:23:12.785Z,5.57
2018-05-11T23:25:40.299Z,5.07
2018-05-11T23:28:07.796Z,4.60
2018-05-11T23:30:35.316Z,4.73
2018-05-11T23:33:02.808Z,5.80
2018-05-11T23:35:30.331Z,5.00
2018-05-11T23:37:57.822Z,4.43
2018-05-11T23:40:25.311Z,4.80
2018-05-11T23:42:52.820Z,4.70
2018-05-11T23:45:20.703Z,5.50
2018-05-11T23:47:48.290Z,5.23
2018-05-11T23:50:15.780Z,5.20
2018-05-11T23:52:43.287Z,5.30
2018-05-11T23:55:10.778Z,4.83
2018-05-11T23:57:38.761Z,5.10
